• Join FlightAware (Why Join?)
  • Login
  • US Flag 
08:27AM EDT


 

Airport Tracker/Info


-or-


 

Live Flight TrackerFlight Track Log ✈ MJI22 ✈ 12-Aug-2013 ✈ KBHB - KHPN

Flight Track Log - Related Links

Times and Time Zones

All times are in EDT time to prevent confusion due to time zone crossing. See the MJI22 flight status page for this flight to view local times or setup timezone preferences in your user account.

Time Position Orientation Groundspeed Altitude Reporting Facility
EDT Latitude Longitude Course Direction KTS MPH feet Rate Location/Type
09:16AM 44.3853 -68.4919 251° West 237 273 6,500  Level Boston Center
09:17AM 44.3575 -68.5925 249° West 260 299 9,600 3,360 Climbing Boston Center
09:18AM 44.3258 -68.7047 249° West 294 338 13,300 3,480 Climbing Boston Center
09:19AM 44.2939 -68.8169 248° West 308 354 16,600 2,760 Climbing Boston Center
09:20AM 44.2600 -68.9381 249° West 324 373 18,900 2,520 Climbing Boston Center
09:21AM 44.2479 -69.0420 251° West  Level FlightAware Approximate
09:21AM 44.2242 -69.0647 248° West 334 384 21,600  Level Boston Center
09:22AM 44.1900 -69.1797 248° West 340 391 24,400 2,640 Climbing Boston Center
09:23AM 44.1542 -69.3119 249° West 340 391 27,000 2,160 Climbing Boston Center
09:24AM 44.1236 -69.4175 248° West 333 383 28,800 1,320 Climbing Boston Center
09:25AM 44.0856 -69.5525 249° West 340 391 29,700 600 Climbing Boston Center
09:26AM 44.0508 -69.6728 248° West 361 415 30,000 120 Climbing Boston Center
09:27AM 44.0044 -69.8278 247° West 386 444 30,000  Level Boston Center
09:28AM 43.9678 -69.9592 249° West 402 463 30,000  Level Boston Center
09:29AM 43.9192 -70.1228 248° West 411 473 30,000  Level Boston Center
09:30AM 43.8878 -70.2275 247° West 417 480 30,000  Level Boston Center
09:31AM 43.8292 -70.4283 248° West 427 491 30,000  Level Boston Center
09:32AM 43.7836 -70.5708 246° West 434 499 30,000  Level Boston Center
09:33AM 43.7381 -70.7217 247° West 428 493 30,000  Level Boston Center
09:34AM 43.6942 -70.8667 247° West 423 487 30,000  Level Boston Center
09:35AM 43.6564 -70.9967 248° West 423 487 30,000  Level Boston Center
09:36AM 43.6103 -71.1469 247° West 418 481 30,000  Level Boston Center
09:37AM 43.5578 -71.3142 247° West 423 487 30,000  Level Boston Center
09:38AM 43.5111 -71.4611 246° West 423 487 30,000  Level Boston Center
09:39AM 43.4644 -71.6078 246° West 423 487 30,000  Level Boston Center
09:40AM 43.4256 -71.7283 246° West 423 487 30,000  Level Boston Center
09:41AM 43.3683 -71.9117 247° West 428 493 30,000  Level Boston Center
09:42AM 43.3208 -72.0606 246° West 428 493 30,000  Level Boston Center
09:43AM 43.2733 -72.2092 246° West 428 493 30,000 -360 Level Boston Center
09:44AM 43.2256 -72.3603 247° West 428 493 29,300 -840 Descending Boston Center
09:45AM 43.1861 -72.4772 245° Southwest 433 498 28,400 -1,140 Descending Boston Center
09:46AM 43.1317 -72.6478 246° West 438 504 27,100 -1,260 Descending Boston Center
09:47AM 43.0833 -72.7983 246° West 443 510 25,900 -1,200 Descending Boston Center
09:48AM 43.0328 -72.9486 245° Southwest 438 504 24,700 -900 Descending Boston Center
09:49AM 42.9778 -73.1156 246° West 438 504 24,100 -840 Descending Boston Center
09:50AM 42.9267 -73.2681 245° Southwest 438 504 23,100 -1,080 Descending Boston Center
09:51AM 42.8733 -73.4175 244° Southwest 438 504 22,000 -840 Descending Boston Center
09:52AM 42.8142 -73.5353 236° Southwest 438 504 21,500 -1,320 Descending Boston Center
09:53AM 42.6928 -73.5783 195° South 421 484 19,400 -1,860 Descending Boston Center
09:54AM 42.5714 -73.6269 196° South 449 517 17,800 -1,620 Descending Boston Center
09:55AM 42.4394 -73.6778 196° South 456 525 16,300 -1,380 Descending Boston Center
09:56AM 42.3222 -73.7233 196° South 456 525 15,100 -1,380 Descending Boston Center
09:57AM 42.2072 -73.7658 195° South 438 504 13,500 -1,320 Descending Boston Center
09:58AM 42.0942 -73.8083 196° South 433 498 12,500 -780 Descending Boston Center
09:59AM 41.9794 -73.8169 183° South 426 490 12,000 -300 Descending Boston Center
10:00AM 41.8647 -73.8228 182° South 426 490 11,900 -480 Descending Boston Center
10:01AM 41.7769 -73.8375 187° South 371 427 11,100 -1,320 Descending Boston Center
10:02AM 41.6956 -73.8469 185° South 313 360 9,300 -1,860 Descending Boston Center
10:03AM 41.6161 -73.8561 185° South 292 336 7,500 -1,380 Descending Boston Center
10:04AM 41.4833 -73.8667 183° South 288 331 5,900 -1,140 Descending New York TRACON
10:05AM 41.4167 -73.8667 180° South 295 339 4,600 -1,320 Descending New York TRACON
10:06AM 41.3500 -73.8000 143° Southeast 289 333 3,300 -840 Descending New York TRACON
10:07AM 41.2833 -73.7333 143° Southeast 285 328 3,000 -180 Descending New York TRACON
10:08AM 41.2167 -73.6833 151° Southeast 266 306 3,000  Level New York TRACON
10:09AM 41.1500 -73.6333 151° Southeast 222 255 3,000  Level New York TRACON
10:10AM 41.1000 -73.6000 153° Southeast 189 217 3,000  Level New York TRACON
10:11AM 41.0667 -73.5667 143° Southeast 195 224 3,000 -360 Level New York TRACON
10:13AM 41.0000 -73.5667 180° South 165 190 2,300 -480 Descending New York TRACON
10:14AM 40.9833 -73.6167 246° West 167 192 2,100 -420 Descending New York TRACON
10:15AM 41.0000 -73.6667 294° West 149 171 1,500 -600 Descending New York TRACON
10:15AM 41.0333 -73.6833 339° North 126 145 1,000 -600 Descending New York TRACON
10:17AM 41.0667 -73.7000 246° West  Level FlightAware Approximate
10:24AM 41.0669 -73.7076 246° West  Level Estimated
10:25AM 41.0667 -73.7000 246° West  Level FlightAware Approximate
10:26AM 41.0669 -73.7076 246° West  Level Estimated